Zhytomyr, Ukraine
Current Conditions -  °F | °C
As of 1:00 PM on Saturday 29 Nov 2014 (Local Time) from UKKM Reporting Station
NA  
Wind Chill: 17°   Ceiling: NA
Heat Index: 25°   Visibility: 4mi
Dew Point: 23°   Wind: 7mph
Humidity: 93%   Direction: 10°N
Pressure: 30.33"   Gusts: NA
Location:  50.25°N, 28.67°E
Report Text: UKKM 291000Z AUTO 01003MPS 6000 ///009 M04/M05 Q1027
Loading
Personal Weather Stations






























Interactive Weather Map New forecast layout! Learn more

10-Day Weather Forecast

Advertisements
Track Severe Weather on mobile